createdAt,value
2023-04-02T00:01:37.389Z,6.83
2023-04-02T00:04:21.293Z,11.03
2023-04-02T00:07:09.409Z,11.13
2023-04-02T00:09:37.399Z,11.33
2023-04-02T00:12:18.450Z,6.63
2023-04-02T00:14:47.794Z,9.63
2023-04-02T00:17:14.247Z,9.43
2023-04-02T00:19:57.690Z,15.77
2023-04-02T00:22:30.582Z,9.53
2023-04-02T00:25:00.422Z,13.70
2023-04-02T00:27:26.600Z,20.40
2023-04-02T00:29:55.528Z,9.00
2023-04-02T00:32:26.265Z,11.03
2023-04-02T00:34:54.245Z,12.70
2023-04-02T00:37:26.807Z,10.03
2023-04-02T00:40:08.936Z,11.77
2023-04-02T00:42:39.437Z,15.23
2023-04-02T00:45:18.010Z,11.97
2023-04-02T00:47:44.196Z,13.30
2023-04-02T00:50:16.447Z,9.83
2023-04-02T00:52:45.570Z,21.37
2023-04-02T00:55:38.684Z,11.93
2023-04-02T00:58:26.705Z,9.27
2023-04-02T01:00:53.882Z,9.20
2023-04-02T01:03:28.123Z,11.27
2023-04-02T01:06:02.228Z,10.37
2023-04-02T01:08:56.262Z,8.67
2023-04-02T01:11:26.277Z,7.37
2023-04-02T01:14:10.826Z,7.83
2023-04-02T01:16:53.283Z,10.73
2023-04-02T01:19:31.593Z,9.13
2023-04-02T01:22:20.180Z,23.57
2023-04-02T01:24:46.868Z,8.93
2023-04-02T01:27:42.590Z,14.83
2023-04-02T01:30:11.322Z,6.87
2023-04-02T01:32:38.725Z,10.87
2023-04-02T01:35:05.402Z,8.27
2023-04-02T01:37:51.132Z,6.40
2023-04-02T01:40:48.749Z,8.67
2023-04-02T01:43:40.803Z,8.40
2023-04-02T01:46:25.817Z,6.60
2023-04-02T01:48:54.505Z,5.13
2023-04-02T01:51:30.900Z,5.03
2023-04-02T01:54:01.251Z,5.17
2023-04-02T01:56:29.648Z,6.67
2023-04-02T01:58:57.880Z,6.60
2023-04-02T02:01:39.169Z,4.43
2023-04-02T02:04:06.900Z,5.87
2023-04-02T02:06:34.038Z,6.47
2023-04-02T02:09:03.649Z,6.63
2023-04-02T02:11:32.266Z,5.90
2023-04-02T02:14:01.050Z,7.10
2023-04-02T02:16:31.315Z,7.23
2023-04-02T02:19:02.003Z,3.73
2023-04-02T02:22:00.634Z,5.73
2023-04-02T02:24:31.058Z,6.30
2023-04-02T02:27:15.993Z,6.10
2023-04-02T02:29:44.814Z,6.23
2023-04-02T02:32:14.989Z,4.90
2023-04-02T02:34:48.484Z,6.77
2023-04-02T02:37:24.285Z,4.17
2023-04-02T02:39:55.526Z,5.67
2023-04-02T02:42:29.887Z,7.93
2023-04-02T02:44:57.831Z,8.13
2023-04-02T02:47:27.682Z,7.13
2023-04-02T02:49:59.159Z,7.47
2023-04-02T02:52:38.221Z,4.17
2023-04-02T02:55:15.545Z,5.50
2023-04-02T02:58:03.790Z,6.57
2023-04-02T03:00:37.714Z,4.83
2023-04-02T03:03:11.766Z,4.17
2023-04-02T03:05:41.026Z,5.90
2023-04-02T03:08:21.831Z,6.17
2023-04-02T03:11:01.838Z,4.40
2023-04-02T03:13:38.166Z,6.37
2023-04-02T03:16:22.789Z,9.60
2023-04-02T03:19:01.220Z,5.27
2023-04-02T03:21:56.596Z,6.73
2023-04-02T03:24:23.292Z,6.77
2023-04-02T03:26:57.437Z,5.53
2023-04-02T03:29:32.754Z,7.70
2023-04-02T03:32:05.904Z,5.57
2023-04-02T03:34:48.833Z,5.97
2023-04-02T03:37:29.069Z,3.87
2023-04-02T03:40:04.093Z,8.27
2023-04-02T03:42:41.845Z,4.20
2023-04-02T03:45:20.576Z,6.83
2023-04-02T03:48:00.595Z,7.73
2023-04-02T03:50:48.783Z,7.37
2023-04-02T03:53:15.589Z,5.90
2023-04-02T03:55:42.208Z,7.43
2023-04-02T03:58:20.098Z,2.50
2023-04-02T04:00:51.234Z,3.43
2023-04-02T04:03:26.306Z,2.90
2023-04-02T04:05:58.684Z,4.30
2023-04-02T04:08:33.174Z,3.23
2023-04-02T04:11:06.854Z,3.23
2023-04-02T04:13:46.422Z,2.60
2023-04-02T04:16:21.072Z,1.80
2023-04-02T04:19:02.497Z,2.37
2023-04-02T04:21:36.382Z,3.43
2023-04-02T04:24:24.022Z,2.23
2023-04-02T04:27:09.317Z,4.37
2023-04-02T04:29:48.638Z,2.53
2023-04-02T04:32:31.137Z,2.13
2023-04-02T04:35:07.419Z,1.17
2023-04-02T04:37:39.841Z,3.10
2023-04-02T04:40:19.382Z,1.63
2023-04-02T04:42:50.280Z,3.67
2023-04-02T04:45:33.792Z,4.13
2023-04-02T04:48:22.453Z,3.17
2023-04-02T04:51:07.670Z,2.97
2023-04-02T04:53:45.010Z,2.80
2023-04-02T04:56:19.309Z,2.63
2023-04-02T04:59:01.243Z,4.13
2023-04-02T05:01:28.108Z,2.37
2023-04-02T05:04:13.915Z,2.30
2023-04-02T05:07:08.471Z,2.63
2023-04-02T05:09:44.375Z,4.17
2023-04-02T05:12:28.992Z,2.27
2023-04-02T05:15:16.586Z,3.87
2023-04-02T05:18:06.490Z,5.40
2023-04-02T05:20:40.428Z,2.60
2023-04-02T05:23:13.387Z,2.67
2023-04-02T05:26:09.704Z,1.73
2023-04-02T05:28:50.969Z,1.43
2023-04-02T05:31:40.001Z,1.57
2023-04-02T05:34:08.984Z,2.40
2023-04-02T05:36:35.128Z,2.80
2023-04-02T05:39:01.742Z,2.40
2023-04-02T05:41:43.216Z,1.97
2023-04-02T05:44:21.245Z,2.93
2023-04-02T05:47:01.313Z,2.67
2023-04-02T05:49:38.735Z,2.33
2023-04-02T05:52:15.226Z,1.87
2023-04-02T05:54:50.943Z,4.10
2023-04-02T05:57:29.608Z,3.13
2023-04-02T06:00:13.171Z,2.13
2023-04-02T06:02:50.694Z,2.10
2023-04-02T06:05:23.189Z,1.70
2023-04-02T06:07:59.063Z,6.13
2023-04-02T06:10:32.150Z,3.43
2023-04-02T06:13:05.133Z,4.47
2023-04-02T06:15:38.059Z,4.13
2023-04-02T06:18:28.363Z,3.20
2023-04-02T06:20:57.315Z,2.73
2023-04-02T06:23:36.217Z,11.83
2023-04-02T06:26:21.962Z,34.67
2023-04-02T06:28:51.756Z,4.53
2023-04-02T06:31:35.771Z,4.73
2023-04-02T06:34:06.975Z,4.70
2023-04-02T06:36:34.624Z,3.47
2023-04-02T06:39:10.989Z,1.93
2023-04-02T06:41:38.903Z,2.20
2023-04-02T06:44:40.260Z,4.07
2023-04-02T06:47:38.710Z,5.27
2023-04-02T06:50:22.793Z,5.60
2023-04-02T06:52:55.976Z,4.17
2023-04-02T06:55:48.985Z,8.70
2023-04-02T06:58:20.609Z,3.93
2023-04-02T07:00:50.066Z,3.13
2023-04-02T07:03:27.617Z,7.57
2023-04-02T07:05:56.719Z,4.93
2023-04-02T07:08:23.578Z,3.37
2023-04-02T07:10:50.498Z,4.37
2023-04-02T07:13:20.718Z,6.43
2023-04-02T07:15:51.765Z,7.03
2023-04-02T07:18:33.196Z,5.53
2023-04-02T07:21:02.215Z,5.00
2023-04-02T07:23:28.895Z,3.93
2023-04-02T07:25:56.726Z,5.10
2023-04-02T07:28:24.240Z,3.73
2023-04-02T07:30:51.039Z,4.23
2023-04-02T07:33:21.672Z,6.67
2023-04-02T07:35:48.669Z,8.20
2023-04-02T07:38:15.969Z,4.50
2023-04-02T07:40:42.431Z,6.87
2023-04-02T07:43:09.673Z,3.30
2023-04-02T07:45:36.370Z,3.07
2023-04-02T07:48:08.284Z,3.77
2023-04-02T07:50:35.062Z,4.07
2023-04-02T07:53:02.258Z,4.03
2023-04-02T07:55:28.477Z,3.97
2023-04-02T07:57:57.709Z,3.60
2023-04-02T08:00:25.374Z,3.37
2023-04-02T08:02:52.804Z,4.00
2023-04-02T08:05:19.415Z,2.97
2023-04-02T08:07:56.196Z,3.47
2023-04-02T08:10:23.338Z,4.17
2023-04-02T08:12:49.916Z,4.57
2023-04-02T08:15:16.444Z,4.93
2023-04-02T08:17:43.714Z,4.07
2023-04-02T08:20:17.456Z,4.63
2023-04-02T08:22:48.312Z,4.57
2023-04-02T08:25:15.773Z,2.60
2023-04-02T08:27:42.411Z,3.53
2023-04-02T08:30:11.985Z,15.07
2023-04-02T08:32:40.397Z,8.10
2023-04-02T08:35:09.214Z,5.50
2023-04-02T08:37:35.937Z,3.03
2023-04-02T08:40:03.349Z,5.10
2023-04-02T08:42:59.753Z,6.30
2023-04-02T08:45:41.387Z,4.30
2023-04-02T08:48:11.101Z,4.33
2023-04-02T08:50:41.394Z,6.93
2023-04-02T08:53:22.200Z,5.17
2023-04-02T08:55:55.008Z,2.97
2023-04-02T08:58:41.027Z,8.53
2023-04-02T09:01:18.392Z,2.90
2023-04-02T09:03:49.901Z,3.27
2023-04-02T09:06:19.392Z,4.73
2023-04-02T09:08:48.296Z,4.43
2023-04-02T09:11:21.016Z,5.77
2023-04-02T09:13:53.669Z,2.67
2023-04-02T09:16:33.537Z,4.03
2023-04-02T09:19:01.704Z,5.47
2023-04-02T09:21:40.701Z,7.30
2023-04-02T09:24:12.355Z,5.90
2023-04-02T09:26:41.110Z,4.83
2023-04-02T09:29:07.836Z,5.93
2023-04-02T09:31:38.681Z,4.60
2023-04-02T09:34:34.790Z,2.77
2023-04-02T09:37:24.699Z,5.20
2023-04-02T09:39:51.513Z,4.37
2023-04-02T09:42:35.529Z,7.73
2023-04-02T09:45:31.994Z,5.77
2023-04-02T09:47:58.427Z,5.37
2023-04-02T09:50:27.406Z,3.60
2023-04-02T09:52:53.729Z,4.93
2023-04-02T09:55:30.438Z,3.03
2023-04-02T09:58:26.121Z,3.83
2023-04-02T10:00:53.475Z,6.03
2023-04-02T10:03:25.912Z,12.47
2023-04-02T10:06:13.869Z,19.77
2023-04-02T10:08:42.706Z,3.90
2023-04-02T10:11:19.003Z,4.93
2023-04-02T10:13:59.824Z,6.07
2023-04-02T10:16:55.666Z,5.47
2023-04-02T10:19:33.104Z,3.57
2023-04-02T10:22:04.502Z,5.87
2023-04-02T10:24:30.729Z,3.53
2023-04-02T10:27:29.584Z,5.83
2023-04-02T10:30:18.983Z,4.43
2023-04-02T10:33:04.311Z,4.27
2023-04-02T10:35:52.493Z,4.77
2023-04-02T10:38:38.098Z,5.07
2023-04-02T10:41:23.187Z,3.87
2023-04-02T10:43:57.826Z,3.97
2023-04-02T10:46:45.802Z,6.07
2023-04-02T10:49:31.188Z,5.27
2023-04-02T10:52:09.752Z,3.70
2023-04-02T10:54:49.600Z,8.30
2023-04-02T10:57:16.008Z,6.83
2023-04-02T10:59:48.924Z,4.87
2023-04-02T11:02:31.156Z,8.03
2023-04-02T11:05:02.983Z,7.43
2023-04-02T11:07:45.007Z,10.90
2023-04-02T11:10:16.549Z,11.23
2023-04-02T11:12:49.098Z,11.63
2023-04-02T11:15:18.576Z,12.43
2023-04-02T11:17:46.082Z,11.57
2023-04-02T11:20:42.817Z,5.93
2023-04-02T11:23:14.672Z,6.80
2023-04-02T11:25:42.486Z,6.97
2023-04-02T11:28:26.541Z,6.77
2023-04-02T11:30:54.391Z,12.03
2023-04-02T11:33:45.480Z,6.63
2023-04-02T11:36:55.069Z,7.90
2023-04-02T11:40:00.621Z,7.53
2023-04-02T11:42:36.080Z,9.33
2023-04-02T11:45:23.715Z,10.60
2023-04-02T11:48:12.989Z,11.10
2023-04-02T11:50:40.634Z,11.23
2023-04-02T11:53:10.166Z,7.57
2023-04-02T11:56:04.130Z,5.93
2023-04-02T11:58:37.250Z,13.43
2023-04-02T12:01:21.965Z,13.43
2023-04-02T12:04:10.469Z,4.77
2023-04-02T12:06:47.627Z,5.13
2023-04-02T12:09:33.588Z,7.27
2023-04-02T12:12:17.460Z,6.43
2023-04-02T12:14:46.435Z,6.33
2023-04-02T12:17:34.099Z,7.03
2023-04-02T12:20:01.223Z,26.13
2023-04-02T12:22:31.621Z,10.73
2023-04-02T12:25:04.706Z,5.30
2023-04-02T12:27:31.443Z,15.17
2023-04-02T12:30:20.342Z,17.07
2023-04-02T12:32:48.062Z,17.20
2023-04-02T12:35:27.530Z,17.50
2023-04-02T12:37:54.308Z,32.03
2023-04-02T12:40:21.020Z,29.20
2023-04-02T12:42:47.361Z,12.03
2023-04-02T12:45:25.247Z,9.77
2023-04-02T12:47:53.108Z,3.67
2023-04-02T12:50:21.713Z,18.87
2023-04-02T12:52:54.246Z,10.07
2023-04-02T12:55:24.755Z,10.80
2023-04-02T12:57:59.248Z,16.53
2023-04-02T13:00:29.021Z,19.17
2023-04-02T13:03:22.012Z,18.17
2023-04-02T13:05:54.740Z,11.63
2023-04-02T13:08:30.342Z,6.97
2023-04-02T13:11:02.153Z,12.80
2023-04-02T13:13:43.364Z,14.80
2023-04-02T13:16:18.786Z,14.83
2023-04-02T13:18:47.748Z,11.60
2023-04-02T13:21:16.507Z,10.47
2023-04-02T13:23:43.382Z,27.03
2023-04-02T13:26:31.066Z,14.23
2023-04-02T13:29:18.359Z,21.03
2023-04-02T13:31:44.916Z,35.10
2023-04-02T13:34:11.077Z,26.37
2023-04-02T13:36:37.622Z,24.60
2023-04-02T13:39:04.143Z,11.53
2023-04-02T13:41:35.880Z,10.63
2023-04-02T13:44:03.159Z,39.50
2023-04-02T13:46:33.132Z,33.97
2023-04-02T13:49:00.337Z,24.10
2023-04-02T13:51:41.408Z,31.20
2023-04-02T13:54:14.430Z,82.37
2023-04-02T13:56:41.113Z,27.80
2023-04-02T13:59:07.553Z,24.07
2023-04-02T14:01:34.489Z,17.13
2023-04-02T14:04:01.774Z,122.97
2023-04-02T14:06:54.496Z,80.50
2023-04-02T14:09:38.261Z,41.20
2023-04-02T14:12:45.280Z,45.30
2023-04-02T14:15:18.204Z,90.30
2023-04-02T14:17:48.486Z,111.63
2023-04-02T14:20:40.482Z,36.87
2023-04-02T14:23:26.601Z,57.87
2023-04-02T14:26:28.422Z,231.03
2023-04-02T14:29:13.824Z,189.97
2023-04-02T14:31:54.309Z,101.80
2023-04-02T14:34:42.197Z,44.87
2023-04-02T14:37:26.013Z,121.57
2023-04-02T14:40:18.522Z,102.17
2023-04-02T14:42:59.926Z,31.83
2023-04-02T14:45:53.884Z,55.23
2023-04-02T14:48:26.348Z,240.93
2023-04-02T14:51:00.939Z,60.30
2023-04-02T14:53:36.754Z,92.40
2023-04-02T14:56:07.940Z,56.70
2023-04-02T14:58:40.180Z,21.97
2023-04-02T15:01:14.648Z,138.77
2023-04-02T15:03:55.505Z,153.17
2023-04-02T15:06:31.454Z,141.60
2023-04-02T15:09:08.976Z,45.20
2023-04-02T15:11:41.096Z,89.17
2023-04-02T15:14:22.889Z,58.90
2023-04-02T15:16:49.705Z,58.13
2023-04-02T15:19:17.259Z,33.83
2023-04-02T15:22:06.863Z,167.73
2023-04-02T15:25:03.302Z,32.53
2023-04-02T15:28:01.294Z,30.80
2023-04-02T15:30:34.373Z,17.93
2023-04-02T15:33:41.233Z,116.57
2023-04-02T15:36:28.976Z,32.10
2023-04-02T15:39:33.533Z,18.30
2023-04-02T15:42:27.119Z,14.47
2023-04-02T15:45:11.977Z,44.87
2023-04-02T15:47:47.198Z,23.27
2023-04-02T15:50:26.094Z,12.40
2023-04-02T15:53:22.608Z,21.83
2023-04-02T15:56:02.883Z,32.13
2023-04-02T15:58:31.996Z,46.50
2023-04-02T16:01:21.312Z,32.23
2023-04-02T16:03:53.225Z,109.63
2023-04-02T16:06:25.434Z,43.30
2023-04-02T16:09:01.218Z,35.70
2023-04-02T16:11:28.141Z,21.37
2023-04-02T16:14:09.001Z,29.50
2023-04-02T16:16:36.279Z,30.60
2023-04-02T16:19:26.680Z,26.07
2023-04-02T16:22:11.109Z,18.23
2023-04-02T16:24:38.170Z,15.17
2023-04-02T16:27:50.727Z,20.40
2023-04-02T16:30:20.097Z,15.00
2023-04-02T16:33:19.220Z,11.17
2023-04-02T16:36:00.332Z,10.67
2023-04-02T16:38:54.621Z,12.00
2023-04-02T16:41:45.422Z,11.50
2023-04-02T16:44:20.673Z,12.53
2023-04-02T16:47:02.286Z,16.10
2023-04-02T16:49:51.514Z,21.50
2023-04-02T16:52:17.872Z,27.23
2023-04-02T16:55:12.143Z,12.97
2023-04-02T16:58:10.895Z,21.60
2023-04-02T17:00:49.480Z,14.57
2023-04-02T17:03:40.669Z,18.97
2023-04-02T17:06:35.578Z,16.03
2023-04-02T17:09:04.944Z,19.37
2023-04-02T17:11:56.709Z,15.00
2023-04-02T17:14:42.009Z,29.23
2023-04-02T17:17:14.803Z,15.20
2023-04-02T17:19:44.028Z,13.90
2023-04-02T17:22:20.742Z,16.37
2023-04-02T17:24:53.422Z,12.73
2023-04-02T17:27:43.302Z,11.53
2023-04-02T17:30:13.272Z,13.90
2023-04-02T17:32:40.397Z,20.33
2023-04-02T17:35:18.217Z,13.43
2023-04-02T17:38:00.990Z,16.03
2023-04-02T17:40:38.573Z,18.70
2023-04-02T17:43:26.086Z,15.17
2023-04-02T17:46:00.969Z,34.90
2023-04-02T17:48:42.968Z,21.07
2023-04-02T17:51:36.772Z,25.13
2023-04-02T17:54:20.184Z,12.97
2023-04-02T17:57:38.649Z,19.03
2023-04-02T18:00:32.582Z,12.80
2023-04-02T18:03:30.058Z,15.13
2023-04-02T18:05:56.906Z,16.57
2023-04-02T18:08:52.624Z,8.20
2023-04-02T18:11:39.411Z,20.73
2023-04-02T18:14:21.350Z,13.30
2023-04-02T18:17:06.917Z,9.10
2023-04-02T18:19:58.282Z,10.97
2023-04-02T18:22:51.990Z,12.13
2023-04-02T18:25:50.943Z,10.57
2023-04-02T18:28:59.396Z,10.60
2023-04-02T18:31:51.226Z,16.90
2023-04-02T18:34:51.482Z,9.47
2023-04-02T18:37:51.794Z,13.10
2023-04-02T18:40:46.417Z,12.77
2023-04-02T18:44:14.585Z,14.27
2023-04-02T18:46:58.546Z,16.10
2023-04-02T18:49:58.748Z,13.73
2023-04-02T18:52:50.350Z,17.87
2023-04-02T18:55:51.838Z,22.30
2023-04-02T18:58:48.769Z,17.37
2023-04-02T19:01:20.711Z,13.90
2023-04-02T19:03:52.477Z,18.57
2023-04-02T19:06:43.054Z,17.43
2023-04-02T19:09:26.440Z,17.63
2023-04-02T19:11:54.126Z,13.93
2023-04-02T19:14:22.580Z,7.73
2023-04-02T19:17:01.556Z,12.93
2023-04-02T19:19:43.004Z,11.40
2023-04-02T19:22:21.540Z,10.07
2023-04-02T19:25:17.959Z,14.03
2023-04-02T19:28:01.466Z,28.67
2023-04-02T19:30:37.407Z,13.80
2023-04-02T19:33:10.337Z,18.93
2023-04-02T19:36:01.560Z,24.80
2023-04-02T19:39:09.944Z,15.43
2023-04-02T19:41:53.227Z,15.70
2023-04-02T19:44:21.111Z,19.27
2023-04-02T19:46:50.664Z,13.73
2023-04-02T19:49:24.819Z,13.77
2023-04-02T19:51:52.945Z,19.53
2023-04-02T19:54:19.799Z,132.10
2023-04-02T19:56:47.820Z,27.17
2023-04-02T19:59:17.956Z,47.03
2023-04-02T20:01:49.738Z,33.83
2023-04-02T20:04:18.877Z,19.50
2023-04-02T20:06:47.769Z,28.20
2023-04-02T20:09:17.413Z,16.90
2023-04-02T20:12:29.890Z,11.53
2023-04-02T20:14:50.384Z,19.57
2023-04-02T20:17:20.082Z,24.33
2023-04-02T20:20:03.039Z,16.80
2023-04-02T20:22:32.939Z,17.30
2023-04-02T20:25:10.366Z,9.30
2023-04-02T20:27:38.982Z,10.77
2023-04-02T20:30:15.661Z,12.20
2023-04-02T20:32:52.124Z,8.80
2023-04-02T20:35:19.937Z,12.97
2023-04-02T20:37:47.643Z,11.77
2023-04-02T20:40:14.350Z,12.87
2023-04-02T20:42:42.178Z,21.57
2023-04-02T20:45:09.266Z,22.23
2023-04-02T20:47:36.124Z,10.90
2023-04-02T20:50:02.832Z,16.27
2023-04-02T20:52:29.632Z,12.70
2023-04-02T20:54:56.680Z,23.20
2023-04-02T20:57:24.865Z,14.50
2023-04-02T20:59:51.301Z,23.03
2023-04-02T21:02:18.127Z,16.13
2023-04-02T21:04:44.797Z,14.53
2023-04-02T21:07:12.166Z,19.50
2023-04-02T21:09:39.846Z,9.63
2023-04-02T21:12:07.393Z,16.00
2023-04-02T21:14:38.329Z,19.90
2023-04-02T21:17:07.155Z,9.47
2023-04-02T21:19:34.751Z,16.97
2023-04-02T21:22:03.221Z,18.40
2023-04-02T21:24:33.790Z,12.80
2023-04-02T21:27:03.143Z,11.43
2023-04-02T21:29:29.680Z,15.80
2023-04-02T21:31:57.469Z,15.97
2023-04-02T21:34:24.016Z,12.60
2023-04-02T21:36:56.408Z,11.17
2023-04-02T21:39:23.912Z,10.20
2023-04-02T21:41:55.965Z,14.07
2023-04-02T21:44:26.932Z,11.03
2023-04-02T21:46:55.600Z,8.57
2023-04-02T21:49:32.801Z,8.73
2023-04-02T21:52:02.766Z,9.93
2023-04-02T21:54:29.833Z,10.43
2023-04-02T21:56:57.055Z,8.60
2023-04-02T21:59:24.329Z,14.47
2023-04-02T22:01:52.632Z,10.67
2023-04-02T22:04:22.208Z,10.03
2023-04-02T22:06:51.622Z,9.70
2023-04-02T22:09:26.393Z,11.43
2023-04-02T22:11:58.267Z,9.37
2023-04-02T22:14:26.047Z,9.57
2023-04-02T22:17:06.648Z,8.10
2023-04-02T22:19:33.297Z,6.37
2023-04-02T22:22:00.521Z,11.87
2023-04-02T22:24:33.351Z,8.63
2023-04-02T22:27:01.283Z,6.77
2023-04-02T22:29:28.312Z,8.90
2023-04-02T22:31:58.114Z,7.87
2023-04-02T22:34:24.624Z,9.57
2023-04-02T22:36:52.306Z,6.57
2023-04-02T22:39:18.374Z,7.40
2023-04-02T22:41:45.044Z,11.43
2023-04-02T22:44:15.036Z,10.20
2023-04-02T22:46:41.848Z,22.70
2023-04-02T22:49:08.384Z,9.17
2023-04-02T22:51:34.893Z,11.73
2023-04-02T22:54:01.221Z,9.47
2023-04-02T22:56:31.321Z,8.90
2023-04-02T22:58:57.363Z,11.77
2023-04-02T23:01:30.071Z,11.50
2023-04-02T23:03:56.338Z,11.47
2023-04-02T23:06:23.871Z,8.03
2023-04-02T23:08:50.656Z,8.03
2023-04-02T23:11:23.103Z,8.03
2023-04-02T23:13:51.083Z,8.57
2023-04-02T23:16:18.486Z,6.07
2023-04-02T23:18:47.213Z,9.63
2023-04-02T23:21:17.235Z,9.13
2023-04-02T23:23:43.972Z,7.07
2023-04-02T23:26:21.303Z,6.87
2023-04-02T23:28:48.232Z,8.00
2023-04-02T23:31:16.999Z,8.53
2023-04-02T23:33:43.592Z,6.23
2023-04-02T23:36:17.567Z,8.27
2023-04-02T23:38:43.729Z,9.67
2023-04-02T23:41:14.076Z,7.60
2023-04-02T23:43:40.318Z,6.30
2023-04-02T23:46:06.878Z,8.83
2023-04-02T23:48:33.010Z,6.00
2023-04-02T23:50:59.749Z,8.37
2023-04-02T23:53:26.234Z,4.60
2023-04-02T23:55:52.583Z,7.40
2023-04-02T23:58:19.309Z,5.67
